Time;durP1;ratioP1;P1;durP2;ratioP2;P2;SDS_P1;SDS_P2;PMS_P1;PMS_P2;Temp;Humidity;BMP_temperature;BMP_pressure;BME280_temperature;BME280_humidity;BME280_pressure;Samples;Min_cycle;Max_cycle;Signal;HPM_P1;HPM_P2
2022/11/18 00:02:29;;;;;;;8.5;15.9;;;;;;;1.3;89.2;97450;;;;
2022/11/18 00:14:33;;;;;;;8.9;16.9;;;;;;;1.2;89;97450;;;;
2022/11/18 00:23:29;;;;;;;8.9;16.9;;;;;;;1.2;89;97440;;;;
2022/11/18 00:33:29;;;;;;;8.9;16.9;;;;;;;1.1;89.1;97450;;;;
2022/11/18 00:44:29;;;;;;;8;13.4;;;;;;;1.3;89;97440;;;;
2022/11/18 00:55:29;;;;;;;8;13.4;;;;;;;1.3;88.8;97440;;;;
2022/11/18 01:06:29;;;;;;;8;13.4;;;;;;;1.3;88.5;97430;;;;
2022/11/18 01:16:29;;;;;;;6.5;12.5;;;;;;;1.3;88.4;97430;;;;
2022/11/18 01:27:29;;;;;;;6.5;12.5;;;;;;;1.4;88.1;97430;;;;
2022/11/18 01:38:29;;;;;;;6.5;12.5;;;;;;;1.1;88.1;97430;;;;
2022/11/18 01:49:29;;;;;;;6;12.1;;;;;;;1.3;87.8;97420;;;;
2022/11/18 01:59:29;;;;;;;6;12.1;;;;;;;1.2;87.7;97420;;;;
2022/11/18 02:09:29;;;;;;;6;12.1;;;;;;;1;87.7;97410;;;;
2022/11/18 02:20:29;;;;;;;6.8;13.6;;;;;;;1.1;88;97390;;;;
2022/11/18 02:31:29;;;;;;;6.8;13.6;;;;;;;0.9;89;97370;;;;
2022/11/18 02:41:29;;;;;;;6.8;13.6;;;;;;;0.9;89.3;97390;;;;
2022/11/18 02:52:29;;;;;;;6.1;11.3;;;;;;;1;89.3;97390;;;;
2022/11/18 03:03:29;;;;;;;6.1;11.3;;;;;;;1;89.5;97390;;;;
2022/11/18 03:13:29;;;;;;;6.6;11.6;;;;;;;0.9;89.7;97390;;;;
2022/11/18 03:24:29;;;;;;;6.6;11.6;;;;;;;0.7;90.3;97370;;;;
2022/11/18 03:35:29;;;;;;;6.6;11.6;;;;;;;0.8;90.3;97370;;;;
2022/11/18 03:45:29;;;;;;;7.1;14.5;;;;;;;0.8;90.3;97370;;;;
2022/11/18 03:56:29;;;;;;;7.1;14.5;;;;;;;0.7;90.1;97370;;;;
2022/11/18 04:06:29;;;;;;;7.1;14.5;;;;;;;0.7;90.3;97350;;;;
2022/11/18 04:17:29;;;;;;;7.8;14.2;;;;;;;0.7;90.3;97340;;;;
2022/11/18 04:27:29;;;;;;;7.8;14.2;;;;;;;0.9;90.2;97330;;;;
2022/11/18 04:37:29;;;;;;;7.8;14.2;;;;;;;0.8;90.2;97340;;;;
2022/11/18 04:47:29;;;;;;;7.2;13.4;;;;;;;0.7;90;97330;;;;
2022/11/18 04:58:29;;;;;;;7.2;13.4;;;;;;;0.4;90.2;97350;;;;
2022/11/18 05:08:29;;;;;;;7.2;13.4;;;;;;;0.5;90.2;97340;;;;
2022/11/18 05:19:29;;;;;;;6.6;13;;;;;;;0.4;90.5;97340;;;;
2022/11/18 05:30:29;;;;;;;6.6;13;;;;;;;0.6;90.5;97360;;;;
2022/11/18 05:52:29;;;;;;;6.3;10.9;;;;;;;0.5;90.6;97370;;;;
2022/11/18 06:03:29;;;;;;;6.3;10.9;;;;;;;0.5;90.8;97380;;;;
2022/11/18 06:13:29;;;;;;;6;12.1;;;;;;;0.6;90.8;97390;;;;
2022/11/18 06:24:29;;;;;;;6;12.1;;;;;;;0.7;90.7;97400;;;;
2022/11/18 06:34:29;;;;;;;6;12.1;;;;;;;0.7;90.5;97400;;;;
2022/11/18 06:45:29;;;;;;;7;12.9;;;;;;;0.6;90.4;97400;;;;
2022/11/18 06:55:29;;;;;;;7;12.9;;;;;;;0.6;90.6;97430;;;;
2022/11/18 07:05:29;;;;;;;7;12.9;;;;;;;0.8;90.4;97440;;;;
2022/11/18 07:16:29;;;;;;;7.3;13;;;;;;;0.8;90.1;97430;;;;
2022/11/18 07:26:29;;;;;;;7.3;13;;;;;;;0.8;89.8;97430;;;;
2022/11/18 07:37:29;;;;;;;7.3;13;;;;;;;0.9;89.9;97410;;;;
2022/11/18 07:47:29;;;;;;;6.6;12.9;;;;;;;0.8;90.2;97400;;;;
2022/11/18 07:57:29;;;;;;;6.6;12.9;;;;;;;0.7;90;97410;;;;
2022/11/18 08:07:29;;;;;;;6.6;12.9;;;;;;;0.7;90.2;97400;;;;
2022/11/18 08:18:29;;;;;;;6.1;12;;;;;;;0.9;90.1;97410;;;;
2022/11/18 08:29:29;;;;;;;6.1;12;;;;;;;0.8;89.9;97420;;;;
2022/11/18 08:39:29;;;;;;;6.1;12;;;;;;;1;89.5;97430;;;;
2022/11/18 08:49:29;;;;;;;6.5;11.3;;;;;;;1.1;89.1;97440;;;;
2022/11/18 08:59:29;;;;;;;6.5;11.3;;;;;;;1.1;89;97450;;;;
2022/11/18 09:10:29;;;;;;;6.5;11.3;;;;;;;1.4;88.9;97450;;;;
2022/11/18 09:20:29;;;;;;;6.7;12.8;;;;;;;1.6;88.4;97440;;;;
2022/11/18 09:30:29;;;;;;;6.7;12.8;;;;;;;1.6;87.8;97460;;;;
2022/11/18 09:40:29;;;;;;;6.7;12.8;;;;;;;1.4;87;97470;;;;
2022/11/18 09:50:29;;;;;;;5.9;11.1;;;;;;;1.5;86.2;97470;;;;
2022/11/18 10:01:29;;;;;;;5.9;11.1;;;;;;;1.4;85.4;97470;;;;
2022/11/18 10:12:29;;;;;;;6.1;9.5;;;;;;;1.6;85.2;97460;;;;
2022/11/18 10:23:29;;;;;;;6.1;9.5;;;;;;;1.4;85;97450;;;;
2022/11/18 10:33:29;;;;;;;6.1;9.5;;;;;;;1.6;85.2;97440;;;;
2022/11/18 10:44:29;;;;;;;5.2;9.3;;;;;;;1.7;84.8;97470;;;;
2022/11/18 10:54:29;;;;;;;5.2;9.3;;;;;;;1.8;84.7;97470;;;;
2022/11/18 11:04:29;;;;;;;5.2;9.3;;;;;;;1.4;85.1;97470;;;;
2022/11/18 11:14:29;;;;;;;6.9;11.6;;;;;;;1.2;85.5;97470;;;;
2022/11/18 11:25:29;;;;;;;6.9;11.6;;;;;;;1.1;86;97490;;;;
2022/11/18 11:35:29;;;;;;;6.9;11.6;;;;;;;1.1;85.8;97480;;;;
2022/11/18 11:45:29;;;;;;;6.8;14.2;;;;;;;0.9;86.4;97460;;;;
2022/11/18 11:55:29;;;;;;;6.8;14.2;;;;;;;0.8;86.4;97450;;;;
2022/11/18 12:06:29;;;;;;;6.8;14.2;;;;;;;0.6;86.4;97450;;;;
2022/11/18 12:16:29;;;;;;;8.7;17.2;;;;;;;0.4;87.2;97480;;;;
2022/11/18 12:27:30;;;;;;;8.7;17.2;;;;;;;0;87.5;97480;;;;
2022/11/18 12:37:29;;;;;;;8.7;17.2;;;;;;;0;87.9;97480;;;;
2022/11/18 12:48:29;;;;;;;13.6;25.6;;;;;;;0;88.3;97490;;;;
2022/11/18 12:59:29;;;;;;;13.6;25.6;;;;;;;-0.1;88.7;97500;;;;
2022/11/18 13:09:29;;;;;;;13.6;25.6;;;;;;;-0.4;88.8;97500;;;;
2022/11/18 13:20:30;;;;;;;12.1;24.1;;;;;;;-0.4;88.9;97520;;;;
2022/11/18 13:30:29;;;;;;;12.1;24.1;;;;;;;-0.5;88.9;97530;;;;
2022/11/18 13:40:29;;;;;;;12.1;24.1;;;;;;;-0.5;88.4;97530;;;;
2022/11/18 13:50:29;;;;;;;13.5;28.5;;;;;;;-0.5;87.9;97540;;;;
2022/11/18 14:01:29;;;;;;;13.5;28.5;;;;;;;-0.5;87.7;97560;;;;
2022/11/18 14:11:29;;;;;;;11.8;27.6;;;;;;;-0.7;87.3;97570;;;;
2022/11/18 14:22:29;;;;;;;11.8;27.6;;;;;;;-0.8;87;97560;;;;
2022/11/18 14:33:29;;;;;;;11.8;27.6;;;;;;;-0.8;86.6;97570;;;;
2022/11/18 14:44:29;;;;;;;12.9;20.9;;;;;;;-0.8;85.6;97590;;;;
2022/11/18 14:55:29;;;;;;;12.9;20.9;;;;;;;-0.7;85;97600;;;;
2022/11/18 15:05:29;;;;;;;12.9;20.9;;;;;;;-0.8;84.6;97610;;;;
2022/11/18 15:15:29;;;;;;;11.7;21.4;;;;;;;-0.8;84.5;97620;;;;
2022/11/18 15:25:29;;;;;;;11.7;21.4;;;;;;;-0.8;83.7;97620;;;;
2022/11/18 15:35:29;;;;;;;11.7;21.4;;;;;;;-0.8;83.8;97630;;;;
2022/11/18 15:45:29;;;;;;;13.3;23.8;;;;;;;-0.8;83.9;97630;;;;
2022/11/18 15:56:29;;;;;;;13.3;23.8;;;;;;;-0.9;83.4;97650;;;;
2022/11/18 16:07:29;;;;;;;13.3;23.8;;;;;;;-0.9;84.2;97660;;;;
2022/11/18 16:18:29;;;;;;;13.7;25;;;;;;;-0.9;84.7;97680;;;;
2022/11/18 16:29:29;;;;;;;13.7;25;;;;;;;-0.9;81.9;97670;;;;
2022/11/18 16:39:29;;;;;;;13.7;25;;;;;;;-0.9;81.7;97680;;;;
2022/11/18 16:49:29;;;;;;;11.8;20.6;;;;;;;-0.9;81.7;97690;;;;
2022/11/18 17:00:29;;;;;;;11.8;20.6;;;;;;;-0.8;80.9;97700;;;;
2022/11/18 17:11:29;;;;;;;10;15.3;;;;;;;-0.9;80.1;97690;;;;
2022/11/18 17:22:29;;;;;;;10;15.3;;;;;;;-0.9;80.6;97710;;;;
2022/11/18 17:32:29;;;;;;;10;15.3;;;;;;;-0.8;81.3;97710;;;;
2022/11/18 17:42:29;;;;;;;17.9;35.8;;;;;;;-0.8;81.4;97720;;;;
2022/11/18 17:53:29;;;;;;;17.9;35.8;;;;;;;-0.7;81.9;97730;;;;
2022/11/18 18:03:29;;;;;;;17.9;35.8;;;;;;;-0.7;82.4;97720;;;;
2022/11/18 18:14:29;;;;;;;14.3;26.5;;;;;;;-0.7;82.1;97720;;;;
2022/11/18 18:24:29;;;;;;;14.3;26.5;;;;;;;-0.7;82;97740;;;;
2022/11/18 18:34:29;;;;;;;14.3;26.5;;;;;;;-0.6;82.1;97750;;;;
2022/11/18 18:46:27;;;;;;;10.1;20.1;;;;;;;-0.5;81.9;97760;;;;
2022/11/18 18:55:29;;;;;;;10.1;20.1;;;;;;;-0.5;81.1;97770;;;;
2022/11/18 19:06:29;;;;;;;10.1;20.1;;;;;;;-0.4;81.2;97780;;;;
2022/11/18 19:17:29;;;;;;;12.2;22.5;;;;;;;-0.5;79.4;97780;;;;
2022/11/18 19:28:29;;;;;;;12.2;22.5;;;;;;;-0.5;78.8;97790;;;;
2022/11/18 19:39:29;;;;;;;12.2;22.5;;;;;;;-0.7;78.2;97790;;;;
2022/11/18 19:50:29;;;;;;;11.8;25.2;;;;;;;-0.8;78.4;97790;;;;
2022/11/18 20:01:29;;;;;;;11.8;25.2;;;;;;;-0.8;78.9;97800;;;;
2022/11/18 20:12:29;;;;;;;9.9;18.2;;;;;;;-0.8;79.1;97800;;;;
2022/11/18 20:23:29;;;;;;;9.9;18.2;;;;;;;-0.8;79.1;97790;;;;
2022/11/18 20:33:30;;;;;;;9.9;18.2;;;;;;;-0.8;78.2;97810;;;;
2022/11/18 20:44:29;;;;;;;9.5;17.3;;;;;;;-0.9;77.7;97820;;;;
2022/11/18 20:54:29;;;;;;;9.5;17.3;;;;;;;-1;77;97820;;;;
2022/11/18 21:04:29;;;;;;;9.5;17.3;;;;;;;-0.9;77.8;97840;;;;
2022/11/18 21:14:29;;;;;;;9.9;17.1;;;;;;;-0.9;77.9;97850;;;;
2022/11/18 21:24:29;;;;;;;9.9;17.1;;;;;;;-0.9;76.9;97850;;;;
2022/11/18 21:34:29;;;;;;;9.9;17.1;;;;;;;-0.9;77.4;97860;;;;
2022/11/18 21:45:29;;;;;;;8.4;16.6;;;;;;;-0.8;77.2;97870;;;;
2022/11/18 21:55:29;;;;;;;8.4;16.6;;;;;;;-0.8;76.7;97870;;;;
2022/11/18 22:05:29;;;;;;;8.4;16.6;;;;;;;-0.7;76.8;97870;;;;
2022/11/18 22:16:29;;;;;;;6.1;11.6;;;;;;;-0.6;77.9;97890;;;;
2022/11/18 22:26:29;;;;;;;6.1;11.6;;;;;;;-0.6;76.8;97900;;;;
2022/11/18 22:37:29;;;;;;;6.1;11.6;;;;;;;-0.7;76.2;97900;;;;
2022/11/18 22:48:29;;;;;;;9.4;16.8;;;;;;;-0.8;76;97930;;;;
2022/11/18 22:58:29;;;;;;;9.4;16.8;;;;;;;-0.9;77.3;97930;;;;
2022/11/18 23:08:29;;;;;;;9.4;16.8;;;;;;;-0.8;77.4;97930;;;;
2022/11/18 23:19:29;;;;;;;7.8;15.6;;;;;;;-0.8;77.9;97940;;;;
2022/11/18 23:29:29;;;;;;;7.8;15.6;;;;;;;-0.8;78.2;97950;;;;
2022/11/18 23:39:29;;;;;;;7.1;14.6;;;;;;;-0.8;78.3;97940;;;;
2022/11/18 23:50:30;;;;;;;7.1;14.6;;;;;;;-0.8;78.6;97970;;;;
